North Salt Lake
Center St & Main St, North Salt Lake
Last Weather Update:11/25/2011 7:00:00 AM
Date
ETo
ETc
Rain
Irrigation
Req
Temp
Max
Temp
Min
Temp
Avg
Avg RH
Avg Wind
Avg Solar
inches
inches
incehs
inches
F
F
F
%
%
watts/m2
10/1/2011 0.21" 0.12" 0.00" 0.12" 83.9° 65.0° 76.1° 29.4% 5.8 MPH 201.7w/m2
10/2/2011 0.18" 0.10" 0.00" 0.10" 82.0° 67.1° 74.4° 29.7% 5.1 MPH 183.3w/m2
10/3/2011 0.19" 0.10" 0.00" 0.10" 82.3° 63.5° 72.2° 52.7% 6.1 MPH 183.0w/m2
10/4/2011 0.11" 0.06" 0.05" 0.02" 73.0° 56.9° 64.5° 50.7% 4.7 MPH 161.0w/m2
10/5/2011 0.07" 0.04" 0.67" -0.50" 63.6° 40.8° 55.8° 95.0% 6.9 MPH 56.3w/m2
10/6/2011 0.03" 0.02" 0.58" -0.45" 48.0° 35.9° 41.0° 65.6% 3.5 MPH 46.4w/m2
10/7/2011 0.04" 0.02" 0.01" 0.01" 45.9° 41.1° 43.8° 84.8% 3.7 MPH 36.1w/m2
10/8/2011 0.05" 0.02" 0.04" -0.01" 54.4° 40.6° 45.3° 79.1% 1.4 MPH 100.4w/m2
10/9/2011 0.09" 0.04" 0.00" 0.04" 60.4° 37.0° 47.6° 78.9% 1.1 MPH 191.3w/m2
10/10/2011 0.10" 0.04" 0.02" 0.02" 64.0° 39.8° 52.0° 71.9% 3.5 MPH 147.5w/m2
10/11/2011 0.08" 0.03" 0.00" 0.03" 66.7° 47.0° 56.8° 70.3% 2.9 MPH 106.1w/m2
10/12/2011 0.10" 0.04" 0.00" 0.04" 63.7° 41.6° 52.1° 59.5% 2.1 MPH 181.0w/m2
10/13/2011 0.10" 0.03" 0.00" 0.03" 70.9° 41.9° 55.4° 66.8% 2.0 MPH 175.2w/m2
10/14/2011 0.10" 0.03" 0.00" 0.03" 75.8° 45.0° 59.7° 58.3% 1.7 MPH 182.6w/m2
10/15/2011 0.11" 0.03" 0.00" 0.03" 79.3° 51.2° 63.5° 63.5% 2.2 MPH 169.5w/m2
10/16/2011 0.08" 0.02" 0.09" -0.05" 72.7° 49.7° 60.0° 92.7% 2.2 MPH 113.8w/m2
10/17/2011 0.08" 0.02" 0.04" -0.01" 58.2° 43.6° 50.9° 65.3% 2.6 MPH 167.1w/m2
10/18/2011 0.08" 0.02" 0.00" 0.02" 60.4° 37.1° 48.4° 74.6% 1.6 MPH 176.5w/m2
10/19/2011 0.09" 0.02" 0.00" 0.02" 64.8° 38.4° 51.4° 63.6% 2.1 MPH 173.1w/m2
10/20/2011 0.09" 0.02" 0.00" 0.02" 65.8° 40.7° 53.2° 60.8% 1.7 MPH 168.9w/m2
10/21/2011 0.09" 0.02" 0.00" 0.02" 68.3° 44.5° 55.4° 45.7% 2.0 MPH 164.0w/m2
10/22/2011 0.09" 0.01" 0.00" 0.01" 65.8° 42.5° 53.4° 66.2% 1.9 MPH 161.1w/m2
10/23/2011 0.09" 0.01" 0.00" 0.01" 69.2° 40.1° 54.1° 63.7% 1.6 MPH 165.6w/m2
10/24/2011 0.10" 0.01" 0.00" 0.01" 72.3° 45.4° 58.1° 68.7% 3.4 MPH 138.1w/m2
10/25/2011 0.04" 0.01" 0.00" 0.01" 52.0° 37.2° 45.6° 75.9% 2.3 MPH 64.5w/m2
10/26/2011 0.08" 0.01" 0.00" 0.01" 48.5° 30.9° 39.1° 60.2% 3.6 MPH 151.6w/m2
10/27/2011 0.07" 0.01" 0.00" 0.01" 50.4° 27.8° 38.0° 37.9% 2.2 MPH 155.7w/m2
10/28/2011 0.06" 0.00" 0.00" 0.00" 54.0° 28.7° 40.4° 58.1% 1.8 MPH 134.8w/m2
10/29/2011 0.06" 0.00" 0.00" 0.00" 59.8° 33.9° 45.4° 63.2% 2.1 MPH 105.7w/m2
10/30/2011 0.07" 0.00" 0.00" 0.00" 61.7° 35.2° 46.9° 64.5% 1.7 MPH 151.0w/m2
10/31/2011 0.08" 0.00" 0.00" 0.00" 64.4° 37.8° 50.6° 66.7% 2.1 MPH 139.6w/m2
Totals: 2.82" 0.91" 1.50" -0.29" 83.9° 27.8° 53.3° 64.0% 2.8 MPH 143.6w/m2